Airfield :







YOU CAN JOIN US ON...

 
LOGIN :

Register | Disclaimer

   EN    FR    IT 

 









Legend :    VFR   Marginal VFR   IFR   Intensive IFR   Very Intensive IFR
Visi :
Ceiling :
>= 8 km
>= 3000ft
5 to 8 km
1000 to 3000 ft
1500m to 5 km
500 to 1000 ft
800 to 1500m
200 to 500 ft
< 800m
< 200 ft
Symbols :   Thunderstorms  Fog  Heavy snow  Heavy precipitations  Wind > 20 kt







- Airport Elevation : 72 ft
- IATA code : YDF


CYDF - Deer Lake

CURRENT METAR :
  • 201751Z 28009G19KT 15SM SCT230 21/07 A2984 RMK CI4 SLP106 DENSITY ALT 1000FT

EXPIRED METARs :
  • 201700Z 25010KT 210V290 15SM SCT230 21/06 A2986 RMK CI4 SLP112 DENSITY ALT 900FT
  • 201600Z 20010KT 15SM BKN230 20/08 A2988 RMK CI5 SLP121 DENSITY ALT 700FT
  • 201500Z 21014KT 15SM BKN230 18/06 A2991 RMK CI5 SLP132 DENSITY ALT 500FT

TAF TAF CYDF
Valid from the 20 at 14:00 until the 21 at 02:00 UTC


201338Z 2014/2102 22012KT P6SM FEW220
BECMG 2017/2019 27010G20KT
FM210000 27008KT P6SM BKN030
TEMPO 2100/2102 4SM -SHRA BR BKN020 OVC030 RMK NXT FCST BY 202000Z
No reported NOTAMs for that airfield.



MET'MAP, your aeronautical weather chart ! - Copyright ORBIFLY December 2007 - Disclaimer

ORBIFLY MET'MAP TEAM :

Programming & Development : Alexandra Zaïnal
Concept & Development : Baudouin d'Aumeries
Co-Development & Prog : Marc-Olivier Méhu
Technical & hardware support : Manuel Goepfert

Contact : metmap@orbifly.com




SOURCES & CREDITS :

   NOAA